sensor_id;sensor_type;location;lat;lon;timestamp;P1;durP1;ratioP1;P2;durP2;ratioP2
9739;SDS011;4909;42.680;26.324;2023-10-08T00:01:02;256.23;;;198.43;;
9739;SDS011;4909;42.680;26.324;2023-10-08T00:03:31;254.77;;;199.47;;
9739;SDS011;4909;42.680;26.324;2023-10-08T00:05:58;250.23;;;193.03;;
9739;SDS011;4909;42.680;26.324;2023-10-08T00:08:31;255.73;;;201.53;;
9739;SDS011;4909;42.680;26.324;2023-10-08T00:10:58;253.23;;;186.27;;
9739;SDS011;4909;42.680;26.324;2023-10-08T00:13:32;251.00;;;191.17;;
9739;SDS011;4909;42.680;26.324;2023-10-08T00:16:05;254.47;;;206.53;;
9739;SDS011;4909;42.680;26.324;2023-10-08T00:18:34;249.97;;;186.00;;
9739;SDS011;4909;42.680;26.324;2023-10-08T00:21:03;250.97;;;192.90;;
9739;SDS011;4909;42.680;26.324;2023-10-08T00:23:42;246.50;;;180.07;;
9739;SDS011;4909;42.680;26.324;2023-10-08T00:26:17;248.30;;;189.20;;
9739;SDS011;4909;42.680;26.324;2023-10-08T00:28:54;251.80;;;195.03;;
9739;SDS011;4909;42.680;26.324;2023-10-08T00:31:22;246.97;;;183.43;;
9739;SDS011;4909;42.680;26.324;2023-10-08T00:33:52;248.93;;;187.17;;
9739;SDS011;4909;42.680;26.324;2023-10-08T00:36:19;248.87;;;182.23;;
9739;SDS011;4909;42.680;26.324;2023-10-08T00:38:46;254.93;;;190.93;;
9739;SDS011;4909;42.680;26.324;2023-10-08T00:41:15;249.13;;;183.17;;
9739;SDS011;4909;42.680;26.324;2023-10-08T00:43:46;253.50;;;190.80;;
9739;SDS011;4909;42.680;26.324;2023-10-08T00:46:15;251.17;;;185.20;;
9739;SDS011;4909;42.680;26.324;2023-10-08T00:48:48;253.83;;;193.37;;
9739;SDS011;4909;42.680;26.324;2023-10-08T00:51:18;249.00;;;188.63;;
9739;SDS011;4909;42.680;26.324;2023-10-08T00:53:54;252.17;;;194.13;;
9739;SDS011;4909;42.680;26.324;2023-10-08T00:56:31;248.37;;;181.50;;
9739;SDS011;4909;42.680;26.324;2023-10-08T00:59:15;247.53;;;184.63;;
9739;SDS011;4909;42.680;26.324;2023-10-08T01:01:47;240.43;;;175.60;;
9739;SDS011;4909;42.680;26.324;2023-10-08T01:04:17;245.10;;;181.87;;
9739;SDS011;4909;42.680;26.324;2023-10-08T01:06:48;250.23;;;185.27;;
9739;SDS011;4909;42.680;26.324;2023-10-08T01:09:20;247.93;;;188.97;;
9739;SDS011;4909;42.680;26.324;2023-10-08T01:12:08;245.23;;;182.87;;
9739;SDS011;4909;42.680;26.324;2023-10-08T01:14:38;246.70;;;181.57;;
9739;SDS011;4909;42.680;26.324;2023-10-08T01:17:09;252.00;;;192.67;;
9739;SDS011;4909;42.680;26.324;2023-10-08T01:19:38;251.17;;;192.77;;
9739;SDS011;4909;42.680;26.324;2023-10-08T01:22:08;248.20;;;188.27;;
9739;SDS011;4909;42.680;26.324;2023-10-08T01:24:42;247.60;;;188.10;;
9739;SDS011;4909;42.680;26.324;2023-10-08T01:27:09;250.20;;;190.83;;
9739;SDS011;4909;42.680;26.324;2023-10-08T01:29:37;260.60;;;201.33;;
9739;SDS011;4909;42.680;26.324;2023-10-08T01:32:09;261.93;;;202.87;;
9739;SDS011;4909;42.680;26.324;2023-10-08T01:34:36;258.00;;;200.43;;
9739;SDS011;4909;42.680;26.324;2023-10-08T01:37:04;261.83;;;198.07;;
9739;SDS011;4909;42.680;26.324;2023-10-08T01:39:36;256.43;;;200.67;;
9739;SDS011;4909;42.680;26.324;2023-10-08T01:42:05;249.47;;;189.67;;
9739;SDS011;4909;42.680;26.324;2023-10-08T01:44:40;251.80;;;196.63;;
9739;SDS011;4909;42.680;26.324;2023-10-08T01:47:07;250.53;;;190.03;;
9739;SDS011;4909;42.680;26.324;2023-10-08T01:49:36;248.17;;;183.70;;
9739;SDS011;4909;42.680;26.324;2023-10-08T01:52:04;250.07;;;195.13;;
9739;SDS011;4909;42.680;26.324;2023-10-08T01:54:39;251.37;;;193.53;;
9739;SDS011;4909;42.680;26.324;2023-10-08T01:57:06;249.33;;;185.20;;
9739;SDS011;4909;42.680;26.324;2023-10-08T01:59:34;249.43;;;184.07;;
9739;SDS011;4909;42.680;26.324;2023-10-08T02:02:03;251.13;;;190.07;;
9739;SDS011;4909;42.680;26.324;2023-10-08T02:04:31;250.30;;;191.90;;
9739;SDS011;4909;42.680;26.324;2023-10-08T02:07:00;247.20;;;182.40;;
9739;SDS011;4909;42.680;26.324;2023-10-08T02:09:29;253.80;;;196.73;;
9739;SDS011;4909;42.680;26.324;2023-10-08T02:11:59;247.17;;;191.77;;
9739;SDS011;4909;42.680;26.324;2023-10-08T02:14:29;245.37;;;193.63;;
9739;SDS011;4909;42.680;26.324;2023-10-08T02:16:57;244.57;;;184.13;;
9739;SDS011;4909;42.680;26.324;2023-10-08T02:19:28;245.17;;;186.40;;
9739;SDS011;4909;42.680;26.324;2023-10-08T02:21:55;247.77;;;193.63;;
9739;SDS011;4909;42.680;26.324;2023-10-08T02:24:23;245.37;;;195.80;;
9739;SDS011;4909;42.680;26.324;2023-10-08T02:26:51;243.00;;;190.57;;
9739;SDS011;4909;42.680;26.324;2023-10-08T02:29:19;240.83;;;183.77;;
9739;SDS011;4909;42.680;26.324;2023-10-08T02:31:47;245.77;;;189.93;;
9739;SDS011;4909;42.680;26.324;2023-10-08T02:34:14;247.87;;;196.97;;
9739;SDS011;4909;42.680;26.324;2023-10-08T02:36:40;247.67;;;194.57;;
9739;SDS011;4909;42.680;26.324;2023-10-08T02:39:08;246.77;;;188.77;;
9739;SDS011;4909;42.680;26.324;2023-10-08T02:41:47;251.87;;;204.90;;
9739;SDS011;4909;42.680;26.324;2023-10-08T02:44:15;249.13;;;196.23;;
9739;SDS011;4909;42.680;26.324;2023-10-08T02:46:44;252.37;;;198.60;;
9739;SDS011;4909;42.680;26.324;2023-10-08T02:49:13;253.30;;;210.40;;
9739;SDS011;4909;42.680;26.324;2023-10-08T02:51:45;246.53;;;196.70;;
9739;SDS011;4909;42.680;26.324;2023-10-08T02:54:12;248.73;;;201.80;;
9739;SDS011;4909;42.680;26.324;2023-10-08T02:56:44;248.57;;;204.50;;
9739;SDS011;4909;42.680;26.324;2023-10-08T02:59:13;244.17;;;192.63;;
9739;SDS011;4909;42.680;26.324;2023-10-08T03:01:40;245.47;;;214.60;;
9739;SDS011;4909;42.680;26.324;2023-10-08T03:04:08;247.00;;;200.00;;
9739;SDS011;4909;42.680;26.324;2023-10-08T03:06:43;247.90;;;207.97;;
9739;SDS011;4909;42.680;26.324;2023-10-08T03:09:14;244.70;;;204.67;;
9739;SDS011;4909;42.680;26.324;2023-10-08T03:11:46;250.73;;;203.60;;
9739;SDS011;4909;42.680;26.324;2023-10-08T03:14:13;248.87;;;200.77;;
9739;SDS011;4909;42.680;26.324;2023-10-08T03:16:48;249.30;;;214.57;;
9739;SDS011;4909;42.680;26.324;2023-10-08T03:19:17;244.70;;;200.17;;
9739;SDS011;4909;42.680;26.324;2023-10-08T03:21:47;243.30;;;201.57;;
9739;SDS011;4909;42.680;26.324;2023-10-08T03:24:16;244.40;;;200.13;;
9739;SDS011;4909;42.680;26.324;2023-10-08T03:27:04;233.93;;;190.93;;
9739;SDS011;4909;42.680;26.324;2023-10-08T03:29:32;234.47;;;196.13;;
9739;SDS011;4909;42.680;26.324;2023-10-08T03:32:05;234.53;;;190.47;;
9739;SDS011;4909;42.680;26.324;2023-10-08T03:34:39;229.90;;;182.97;;
9739;SDS011;4909;42.680;26.324;2023-10-08T03:37:08;232.97;;;186.63;;
9739;SDS011;4909;42.680;26.324;2023-10-08T03:39:36;228.77;;;184.87;;
9739;SDS011;4909;42.680;26.324;2023-10-08T03:42:32;230.23;;;183.37;;
9739;SDS011;4909;42.680;26.324;2023-10-08T03:45:05;226.77;;;179.67;;
9739;SDS011;4909;42.680;26.324;2023-10-08T03:47:37;220.70;;;176.77;;
9739;SDS011;4909;42.680;26.324;2023-10-08T03:50:05;217.23;;;180.00;;
9739;SDS011;4909;42.680;26.324;2023-10-08T03:52:34;215.50;;;177.20;;
9739;SDS011;4909;42.680;26.324;2023-10-08T03:55:02;212.17;;;171.77;;
9739;SDS011;4909;42.680;26.324;2023-10-08T03:57:34;204.13;;;167.87;;
9739;SDS011;4909;42.680;26.324;2023-10-08T04:00:13;197.20;;;155.50;;
9739;SDS011;4909;42.680;26.324;2023-10-08T04:02:43;195.83;;;145.40;;
9739;SDS011;4909;42.680;26.324;2023-10-08T04:05:20;192.50;;;145.30;;
9739;SDS011;4909;42.680;26.324;2023-10-08T04:07:52;190.43;;;143.20;;
9739;SDS011;4909;42.680;26.324;2023-10-08T04:10:42;184.33;;;137.87;;
9739;SDS011;4909;42.680;26.324;2023-10-08T04:13:30;182.20;;;136.70;;
9739;SDS011;4909;42.680;26.324;2023-10-08T04:15:57;188.37;;;143.40;;
9739;SDS011;4909;42.680;26.324;2023-10-08T04:18:24;188.47;;;137.67;;
9739;SDS011;4909;42.680;26.324;2023-10-08T04:20:52;184.47;;;137.57;;
9739;SDS011;4909;42.680;26.324;2023-10-08T04:23:37;182.83;;;136.20;;
9739;SDS011;4909;42.680;26.324;2023-10-08T04:26:05;184.30;;;135.03;;
9739;SDS011;4909;42.680;26.324;2023-10-08T04:28:33;179.23;;;132.30;;
9739;SDS011;4909;42.680;26.324;2023-10-08T04:31:01;184.63;;;140.07;;
9739;SDS011;4909;42.680;26.324;2023-10-08T04:33:40;182.40;;;138.80;;
9739;SDS011;4909;42.680;26.324;2023-10-08T04:36:08;192.67;;;146.87;;
9739;SDS011;4909;42.680;26.324;2023-10-08T04:38:35;192.30;;;144.77;;
9739;SDS011;4909;42.680;26.324;2023-10-08T04:41:05;189.37;;;140.30;;
9739;SDS011;4909;42.680;26.324;2023-10-08T04:43:36;195.23;;;143.97;;
9739;SDS011;4909;42.680;26.324;2023-10-08T04:46:08;191.17;;;145.07;;
9739;SDS011;4909;42.680;26.324;2023-10-08T04:48:44;189.17;;;146.57;;
9739;SDS011;4909;42.680;26.324;2023-10-08T04:51:11;182.33;;;140.00;;
9739;SDS011;4909;42.680;26.324;2023-10-08T04:53:39;183.30;;;140.60;;
9739;SDS011;4909;42.680;26.324;2023-10-08T04:56:10;177.70;;;131.30;;
9739;SDS011;4909;42.680;26.324;2023-10-08T04:58:43;176.33;;;128.87;;
9739;SDS011;4909;42.680;26.324;2023-10-08T05:01:12;179.83;;;131.03;;
9739;SDS011;4909;42.680;26.324;2023-10-08T05:03:53;181.77;;;137.83;;
9739;SDS011;4909;42.680;26.324;2023-10-08T05:06:49;179.30;;;134.93;;
9739;SDS011;4909;42.680;26.324;2023-10-08T05:09:26;186.23;;;139.20;;
9739;SDS011;4909;42.680;26.324;2023-10-08T05:12:06;185.70;;;141.27;;
9739;SDS011;4909;42.680;26.324;2023-10-08T05:14:55;186.10;;;136.17;;
9739;SDS011;4909;42.680;26.324;2023-10-08T05:17:41;180.13;;;132.60;;
9739;SDS011;4909;42.680;26.324;2023-10-08T05:20:22;181.77;;;132.83;;
9739;SDS011;4909;42.680;26.324;2023-10-08T05:23:06;176.20;;;132.20;;
9739;SDS011;4909;42.680;26.324;2023-10-08T05:25:46;177.37;;;132.03;;
9739;SDS011;4909;42.680;26.324;2023-10-08T05:28:23;173.43;;;132.20;;
9739;SDS011;4909;42.680;26.324;2023-10-08T05:30:52;180.97;;;139.97;;
9739;SDS011;4909;42.680;26.324;2023-10-08T05:33:20;176.70;;;130.13;;
9739;SDS011;4909;42.680;26.324;2023-10-08T05:35:51;186.03;;;136.80;;
9739;SDS011;4909;42.680;26.324;2023-10-08T05:38:27;183.97;;;136.93;;
9739;SDS011;4909;42.680;26.324;2023-10-08T05:41:12;189.80;;;135.10;;
9739;SDS011;4909;42.680;26.324;2023-10-08T05:43:53;184.47;;;134.83;;
9739;SDS011;4909;42.680;26.324;2023-10-08T05:46:39;191.30;;;148.87;;
9739;SDS011;4909;42.680;26.324;2023-10-08T05:49:14;189.63;;;138.60;;
9739;SDS011;4909;42.680;26.324;2023-10-08T05:52:03;193.63;;;141.27;;
9739;SDS011;4909;42.680;26.324;2023-10-08T05:54:48;192.70;;;142.20;;
9739;SDS011;4909;42.680;26.324;2023-10-08T05:57:41;193.33;;;144.37;;
9739;SDS011;4909;42.680;26.324;2023-10-08T06:00:12;196.20;;;144.67;;
9739;SDS011;4909;42.680;26.324;2023-10-08T06:02:58;204.00;;;149.13;;
9739;SDS011;4909;42.680;26.324;2023-10-08T06:05:36;197.83;;;148.23;;
9739;SDS011;4909;42.680;26.324;2023-10-08T06:08:11;207.27;;;156.27;;
9739;SDS011;4909;42.680;26.324;2023-10-08T06:10:38;203.70;;;148.47;;
9739;SDS011;4909;42.680;26.324;2023-10-08T06:13:10;206.57;;;158.23;;
9739;SDS011;4909;42.680;26.324;2023-10-08T06:15:39;207.60;;;157.60;;
9739;SDS011;4909;42.680;26.324;2023-10-08T06:18:15;214.07;;;163.90;;
9739;SDS011;4909;42.680;26.324;2023-10-08T06:20:41;211.57;;;158.57;;
9739;SDS011;4909;42.680;26.324;2023-10-08T06:23:10;216.80;;;163.80;;
9739;SDS011;4909;42.680;26.324;2023-10-08T06:25:38;226.37;;;178.33;;
9739;SDS011;4909;42.680;26.324;2023-10-08T06:28:13;226.83;;;170.33;;
9739;SDS011;4909;42.680;26.324;2023-10-08T06:30:44;230.73;;;180.70;;
9739;SDS011;4909;42.680;26.324;2023-10-08T06:33:11;242.73;;;187.20;;
9739;SDS011;4909;42.680;26.324;2023-10-08T06:35:40;242.73;;;198.13;;
9739;SDS011;4909;42.680;26.324;2023-10-08T06:38:09;248.53;;;206.40;;
9739;SDS011;4909;42.680;26.324;2023-10-08T06:40:37;247.50;;;213.07;;
9739;SDS011;4909;42.680;26.324;2023-10-08T06:43:10;243.47;;;205.23;;
9739;SDS011;4909;42.680;26.324;2023-10-08T06:45:50;250.00;;;215.60;;
9739;SDS011;4909;42.680;26.324;2023-10-08T06:48:18;251.10;;;211.43;;
9739;SDS011;4909;42.680;26.324;2023-10-08T06:50:48;252.80;;;209.87;;
9739;SDS011;4909;42.680;26.324;2023-10-08T06:53:16;256.90;;;215.87;;
9739;SDS011;4909;42.680;26.324;2023-10-08T06:55:44;269.07;;;237.13;;
9739;SDS011;4909;42.680;26.324;2023-10-08T06:58:13;263.57;;;226.97;;
9739;SDS011;4909;42.680;26.324;2023-10-08T07:00:42;269.90;;;233.43;;
9739;SDS011;4909;42.680;26.324;2023-10-08T07:03:14;272.87;;;233.93;;
9739;SDS011;4909;42.680;26.324;2023-10-08T07:05:43;281.83;;;250.93;;
9739;SDS011;4909;42.680;26.324;2023-10-08T07:08:21;276.47;;;240.73;;
9739;SDS011;4909;42.680;26.324;2023-10-08T07:10:49;280.47;;;239.37;;
9739;SDS011;4909;42.680;26.324;2023-10-08T07:13:16;281.07;;;241.87;;
9739;SDS011;4909;42.680;26.324;2023-10-08T07:15:44;282.50;;;246.90;;
9739;SDS011;4909;42.680;26.324;2023-10-08T07:18:12;283.27;;;245.00;;
9739;SDS011;4909;42.680;26.324;2023-10-08T07:20:40;283.47;;;243.40;;
9739;SDS011;4909;42.680;26.324;2023-10-08T07:23:11;290.97;;;259.13;;
9739;SDS011;4909;42.680;26.324;2023-10-08T07:25:53;303.50;;;271.13;;
9739;SDS011;4909;42.680;26.324;2023-10-08T07:28:24;308.37;;;276.10;;
9739;SDS011;4909;42.680;26.324;2023-10-08T07:30:52;306.03;;;273.13;;
9739;SDS011;4909;42.680;26.324;2023-10-08T07:33:20;311.43;;;278.00;;
9739;SDS011;4909;42.680;26.324;2023-10-08T07:35:50;308.47;;;274.73;;
9739;SDS011;4909;42.680;26.324;2023-10-08T07:38:20;325.37;;;289.70;;
9739;SDS011;4909;42.680;26.324;2023-10-08T07:40:48;362.73;;;325.30;;
9739;SDS011;4909;42.680;26.324;2023-10-08T07:43:16;371.10;;;333.07;;
9739;SDS011;4909;42.680;26.324;2023-10-08T07:45:45;401.77;;;362.60;;
9739;SDS011;4909;42.680;26.324;2023-10-08T07:48:12;400.13;;;361.17;;
9739;SDS011;4909;42.680;26.324;2023-10-08T07:50:43;424.87;;;385.00;;
9739;SDS011;4909;42.680;26.324;2023-10-08T07:53:11;429.67;;;389.77;;
9739;SDS011;4909;42.680;26.324;2023-10-08T07:55:44;451.73;;;411.37;;
9739;SDS011;4909;42.680;26.324;2023-10-08T07:58:13;468.10;;;427.63;;
9739;SDS011;4909;42.680;26.324;2023-10-08T08:00:45;484.33;;;443.53;;
9739;SDS011;4909;42.680;26.324;2023-10-08T08:03:20;511.13;;;469.93;;
9739;SDS011;4909;42.680;26.324;2023-10-08T08:05:47;505.63;;;464.40;;
9739;SDS011;4909;42.680;26.324;2023-10-08T08:08:18;529.67;;;488.47;;
9739;SDS011;4909;42.680;26.324;2023-10-08T08:10:48;538.87;;;497.63;;
9739;SDS011;4909;42.680;26.324;2023-10-08T08:13:24;527.07;;;486.00;;
9739;SDS011;4909;42.680;26.324;2023-10-08T08:15:53;548.80;;;507.37;;
9739;SDS011;4909;42.680;26.324;2023-10-08T08:18:24;540.83;;;499.33;;
9739;SDS011;4909;42.680;26.324;2023-10-08T08:20:58;532.03;;;490.57;;
9739;SDS011;4909;42.680;26.324;2023-10-08T08:23:27;510.37;;;469.43;;
9739;SDS011;4909;42.680;26.324;2023-10-08T08:25:55;509.20;;;468.27;;
9739;SDS011;4909;42.680;26.324;2023-10-08T08:28:37;494.50;;;453.70;;
9739;SDS011;4909;42.680;26.324;2023-10-08T08:31:06;489.03;;;448.40;;
9739;SDS011;4909;42.680;26.324;2023-10-08T08:33:40;489.90;;;448.83;;
9739;SDS011;4909;42.680;26.324;2023-10-08T08:36:19;482.00;;;441.40;;
9739;SDS011;4909;42.680;26.324;2023-10-08T08:38:46;503.60;;;462.70;;
9739;SDS011;4909;42.680;26.324;2023-10-08T08:41:14;500.30;;;459.13;;
9739;SDS011;4909;42.680;26.324;2023-10-08T08:43:44;477.03;;;436.40;;
9739;SDS011;4909;42.680;26.324;2023-10-08T08:46:14;478.97;;;438.47;;
9739;SDS011;4909;42.680;26.324;2023-10-08T08:48:42;476.83;;;436.13;;
9739;SDS011;4909;42.680;26.324;2023-10-08T08:51:10;475.13;;;434.70;;
9739;SDS011;4909;42.680;26.324;2023-10-08T08:53:38;487.70;;;446.90;;
9739;SDS011;4909;42.680;26.324;2023-10-08T08:56:07;475.57;;;434.87;;
9739;SDS011;4909;42.680;26.324;2023-10-08T08:58:35;488.33;;;447.47;;
9739;SDS011;4909;42.680;26.324;2023-10-08T09:01:06;505.57;;;464.43;;
9739;SDS011;4909;42.680;26.324;2023-10-08T09:03:35;515.57;;;474.60;;
9739;SDS011;4909;42.680;26.324;2023-10-08T09:06:02;502.43;;;461.63;;
9739;SDS011;4909;42.680;26.324;2023-10-08T09:08:32;509.83;;;468.77;;
9739;SDS011;4909;42.680;26.324;2023-10-08T09:11:00;531.77;;;490.60;;
9739;SDS011;4909;42.680;26.324;2023-10-08T09:13:29;511.67;;;470.80;;
9739;SDS011;4909;42.680;26.324;2023-10-08T09:16:02;522.23;;;481.03;;
9739;SDS011;4909;42.680;26.324;2023-10-08T09:18:34;516.00;;;475.10;;
9739;SDS011;4909;42.680;26.324;2023-10-08T09:21:08;512.10;;;471.13;;
9739;SDS011;4909;42.680;26.324;2023-10-08T09:23:39;511.40;;;470.50;;
9739;SDS011;4909;42.680;26.324;2023-10-08T09:26:12;515.30;;;474.23;;
9739;SDS011;4909;42.680;26.324;2023-10-08T09:28:40;508.27;;;467.37;;
9739;SDS011;4909;42.680;26.324;2023-10-08T09:31:12;528.53;;;487.23;;
9739;SDS011;4909;42.680;26.324;2023-10-08T09:33:40;525.30;;;484.00;;
9739;SDS011;4909;42.680;26.324;2023-10-08T09:36:08;527.00;;;485.83;;
9739;SDS011;4909;42.680;26.324;2023-10-08T09:38:43;523.33;;;482.30;;
9739;SDS011;4909;42.680;26.324;2023-10-08T09:41:13;508.73;;;467.73;;
9739;SDS011;4909;42.680;26.324;2023-10-08T09:43:40;523.83;;;482.47;;
9739;SDS011;4909;42.680;26.324;2023-10-08T09:46:09;529.43;;;488.10;;
9739;SDS011;4909;42.680;26.324;2023-10-08T09:48:44;523.87;;;482.40;;
9739;SDS011;4909;42.680;26.324;2023-10-08T09:51:16;512.87;;;471.97;;
9739;SDS011;4909;42.680;26.324;2023-10-08T09:53:47;519.10;;;478.20;;
9739;SDS011;4909;42.680;26.324;2023-10-08T09:56:19;506.23;;;465.23;;
9739;SDS011;4909;42.680;26.324;2023-10-08T09:58:47;508.13;;;467.33;;
9739;SDS011;4909;42.680;26.324;2023-10-08T10:01:16;507.93;;;467.03;;
9739;SDS011;4909;42.680;26.324;2023-10-08T10:03:46;515.97;;;474.93;;
9739;SDS011;4909;42.680;26.324;2023-10-08T10:06:15;509.57;;;468.77;;
9739;SDS011;4909;42.680;26.324;2023-10-08T10:08:44;523.60;;;482.63;;
9739;SDS011;4909;42.680;26.324;2023-10-08T10:11:11;504.60;;;463.80;;
9739;SDS011;4909;42.680;26.324;2023-10-08T10:13:38;519.30;;;478.20;;
9739;SDS011;4909;42.680;26.324;2023-10-08T10:16:06;499.27;;;458.67;;
9739;SDS011;4909;42.680;26.324;2023-10-08T10:18:33;507.90;;;466.80;;
9739;SDS011;4909;42.680;26.324;2023-10-08T10:23:54;506.00;;;465.30;;
9739;SDS011;4909;42.680;26.324;2023-10-08T10:26:22;505.97;;;464.90;;
9739;SDS011;4909;42.680;26.324;2023-10-08T10:31:51;515.63;;;474.60;;
9739;SDS011;4909;42.680;26.324;2023-10-08T10:34:20;510.40;;;469.43;;
9739;SDS011;4909;42.680;26.324;2023-10-08T10:36:50;510.53;;;469.63;;
9739;SDS011;4909;42.680;26.324;2023-10-08T10:39:23;512.33;;;471.30;;
9739;SDS011;4909;42.680;26.324;2023-10-08T10:41:56;521.97;;;480.77;;
9739;SDS011;4909;42.680;26.324;2023-10-08T10:44:26;509.23;;;468.40;;
9739;SDS011;4909;42.680;26.324;2023-10-08T10:46:55;511.97;;;471.03;;
9739;SDS011;4909;42.680;26.324;2023-10-08T10:49:36;513.27;;;472.67;;
9739;SDS011;4909;42.680;26.324;2023-10-08T10:52:14;511.07;;;470.47;;
9739;SDS011;4909;42.680;26.324;2023-10-08T10:54:51;503.70;;;463.03;;
9739;SDS011;4909;42.680;26.324;2023-10-08T10:57:24;500.03;;;459.47;;
9739;SDS011;4909;42.680;26.324;2023-10-08T11:00:01;496.63;;;455.83;;
9739;SDS011;4909;42.680;26.324;2023-10-08T11:02:44;519.43;;;478.33;;
9739;SDS011;4909;42.680;26.324;2023-10-08T11:05:14;509.27;;;468.40;;
9739;SDS011;4909;42.680;26.324;2023-10-08T11:07:46;503.53;;;462.77;;
9739;SDS011;4909;42.680;26.324;2023-10-08T11:10:14;512.43;;;471.77;;
9739;SDS011;4909;42.680;26.324;2023-10-08T11:12:42;502.17;;;461.30;;
9739;SDS011;4909;42.680;26.324;2023-10-08T11:15:12;499.50;;;458.90;;
9739;SDS011;4909;42.680;26.324;2023-10-08T11:17:41;506.50;;;465.90;;
9739;SDS011;4909;42.680;26.324;2023-10-08T11:20:22;499.90;;;459.30;;
9739;SDS011;4909;42.680;26.324;2023-10-08T11:22:51;509.03;;;468.00;;
9739;SDS011;4909;42.680;26.324;2023-10-08T11:25:22;513.17;;;472.37;;
9739;SDS011;4909;42.680;26.324;2023-10-08T11:27:53;500.97;;;460.27;;
9739;SDS011;4909;42.680;26.324;2023-10-08T11:30:26;495.30;;;454.73;;
9739;SDS011;4909;42.680;26.324;2023-10-08T11:32:55;487.77;;;447.40;;
9739;SDS011;4909;42.680;26.324;2023-10-08T11:35:24;495.30;;;454.80;;
9739;SDS011;4909;42.680;26.324;2023-10-08T11:37:59;495.43;;;454.83;;
9739;SDS011;4909;42.680;26.324;2023-10-08T11:40:28;495.10;;;454.57;;
9739;SDS011;4909;42.680;26.324;2023-10-08T11:43:12;496.00;;;455.13;;
9739;SDS011;4909;42.680;26.324;2023-10-08T11:45:41;527.67;;;486.53;;
9739;SDS011;4909;42.680;26.324;2023-10-08T11:48:13;498.87;;;458.20;;
9739;SDS011;4909;42.680;26.324;2023-10-08T11:50:42;506.93;;;466.53;;
9739;SDS011;4909;42.680;26.324;2023-10-08T11:53:11;495.43;;;455.03;;
9739;SDS011;4909;42.680;26.324;2023-10-08T11:55:38;504.07;;;463.57;;
9739;SDS011;4909;42.680;26.324;2023-10-08T11:58:06;506.37;;;465.43;;
9739;SDS011;4909;42.680;26.324;2023-10-08T12:00:36;504.67;;;464.10;;
9739;SDS011;4909;42.680;26.324;2023-10-08T12:03:09;487.43;;;447.20;;
9739;SDS011;4909;42.680;26.324;2023-10-08T12:05:37;506.20;;;465.53;;
9739;SDS011;4909;42.680;26.324;2023-10-08T12:08:08;509.67;;;468.90;;
9739;SDS011;4909;42.680;26.324;2023-10-08T12:10:37;516.27;;;474.97;;
9739;SDS011;4909;42.680;26.324;2023-10-08T12:13:06;488.00;;;447.77;;
9739;SDS011;4909;42.680;26.324;2023-10-08T12:15:35;503.77;;;463.03;;
9739;SDS011;4909;42.680;26.324;2023-10-08T12:18:06;490.93;;;450.17;;
9739;SDS011;4909;42.680;26.324;2023-10-08T12:20:40;499.43;;;458.83;;
9739;SDS011;4909;42.680;26.324;2023-10-08T12:23:10;493.20;;;452.70;;
9739;SDS011;4909;42.680;26.324;2023-10-08T12:25:44;486.40;;;445.77;;
9739;SDS011;4909;42.680;26.324;2023-10-08T12:28:16;491.47;;;450.97;;
9739;SDS011;4909;42.680;26.324;2023-10-08T12:30:44;510.30;;;469.00;;
9739;SDS011;4909;42.680;26.324;2023-10-08T12:33:11;500.47;;;459.80;;
9739;SDS011;4909;42.680;26.324;2023-10-08T12:35:41;508.47;;;467.73;;
9739;SDS011;4909;42.680;26.324;2023-10-08T12:38:10;495.97;;;455.43;;
9739;SDS011;4909;42.680;26.324;2023-10-08T12:40:38;517.77;;;476.70;;
9739;SDS011;4909;42.680;26.324;2023-10-08T12:43:13;502.53;;;461.77;;
9739;SDS011;4909;42.680;26.324;2023-10-08T12:45:44;506.87;;;466.00;;
9739;SDS011;4909;42.680;26.324;2023-10-08T12:48:17;504.37;;;463.47;;
9739;SDS011;4909;42.680;26.324;2023-10-08T12:50:45;496.20;;;455.33;;
9739;SDS011;4909;42.680;26.324;2023-10-08T12:53:20;499.60;;;458.47;;
9739;SDS011;4909;42.680;26.324;2023-10-08T12:55:52;498.13;;;457.37;;
9739;SDS011;4909;42.680;26.324;2023-10-08T12:58:20;502.70;;;461.93;;
9739;SDS011;4909;42.680;26.324;2023-10-08T13:00:51;497.13;;;456.27;;
9739;SDS011;4909;42.680;26.324;2023-10-08T13:03:23;500.33;;;459.23;;
9739;SDS011;4909;42.680;26.324;2023-10-08T13:05:56;504.70;;;463.63;;
9739;SDS011;4909;42.680;26.324;2023-10-08T13:08:30;505.53;;;464.53;;
9739;SDS011;4909;42.680;26.324;2023-10-08T13:10:59;490.47;;;450.10;;
9739;SDS011;4909;42.680;26.324;2023-10-08T13:13:26;515.67;;;474.60;;
9739;SDS011;4909;42.680;26.324;2023-10-08T13:15:53;502.83;;;462.10;;
9739;SDS011;4909;42.680;26.324;2023-10-08T13:18:21;511.20;;;470.00;;
9739;SDS011;4909;42.680;26.324;2023-10-08T13:20:50;495.00;;;454.40;;
9739;SDS011;4909;42.680;26.324;2023-10-08T13:23:17;480.30;;;440.10;;
9739;SDS011;4909;42.680;26.324;2023-10-08T13:25:47;513.50;;;472.43;;
9739;SDS011;4909;42.680;26.324;2023-10-08T13:28:19;502.17;;;461.17;;
9739;SDS011;4909;42.680;26.324;2023-10-08T13:30:47;482.40;;;441.77;;
9739;SDS011;4909;42.680;26.324;2023-10-08T13:33:17;505.40;;;464.27;;
9739;SDS011;4909;42.680;26.324;2023-10-08T13:35:45;476.47;;;436.10;;
9739;SDS011;4909;42.680;26.324;2023-10-08T13:38:29;460.90;;;420.90;;
9739;SDS011;4909;42.680;26.324;2023-10-08T13:40:57;471.67;;;431.23;;
9739;SDS011;4909;42.680;26.324;2023-10-08T13:43:32;477.83;;;437.53;;
9739;SDS011;4909;42.680;26.324;2023-10-08T13:46:00;472.77;;;432.50;;
9739;SDS011;4909;42.680;26.324;2023-10-08T13:48:30;481.90;;;441.60;;
9739;SDS011;4909;42.680;26.324;2023-10-08T13:50:58;465.07;;;425.00;;
9739;SDS011;4909;42.680;26.324;2023-10-08T13:53:26;474.20;;;433.90;;
9739;SDS011;4909;42.680;26.324;2023-10-08T13:55:57;478.00;;;437.83;;
9739;SDS011;4909;42.680;26.324;2023-10-08T13:58:25;472.50;;;432.40;;
9739;SDS011;4909;42.680;26.324;2023-10-08T14:00:55;455.87;;;415.77;;
9739;SDS011;4909;42.680;26.324;2023-10-08T14:03:22;475.83;;;435.67;;
9739;SDS011;4909;42.680;26.324;2023-10-08T14:05:49;474.47;;;434.20;;
9739;SDS011;4909;42.680;26.324;2023-10-08T14:08:17;477.80;;;437.40;;
9739;SDS011;4909;42.680;26.324;2023-10-08T14:10:45;456.77;;;416.97;;
9739;SDS011;4909;42.680;26.324;2023-10-08T14:13:15;475.57;;;435.07;;
9739;SDS011;4909;42.680;26.324;2023-10-08T14:15:45;478.40;;;437.67;;
9739;SDS011;4909;42.680;26.324;2023-10-08T14:18:15;468.97;;;428.87;;
9739;SDS011;4909;42.680;26.324;2023-10-08T14:20:43;454.33;;;414.37;;
9739;SDS011;4909;42.680;26.324;2023-10-08T14:23:19;461.93;;;421.83;;
9739;SDS011;4909;42.680;26.324;2023-10-08T14:25:47;455.50;;;415.60;;
9739;SDS011;4909;42.680;26.324;2023-10-08T14:28:18;451.13;;;411.13;;
9739;SDS011;4909;42.680;26.324;2023-10-08T14:31:06;470.70;;;430.17;;
9739;SDS011;4909;42.680;26.324;2023-10-08T14:33:33;465.57;;;425.33;;
9739;SDS011;4909;42.680;26.324;2023-10-08T14:36:07;463.37;;;423.17;;
9739;SDS011;4909;42.680;26.324;2023-10-08T14:38:52;474.17;;;433.70;;